Airfield :
LOGIN :

Register | Disclaimer

   EN    FR    IT 

 










Legend :    VFR   Marginal VFR   IFR   Intensive IFR   Very Intensive IFR
Visi :
Ceiling :
>= 8 km
>= 3000ft
5 to 8 km
1000 to 3000 ft
1500m to 5 km
500 to 1000 ft
800 to 1500m
200 to 500 ft
< 800m
< 200 ft
Symbols :   Thunderstorms  Fog  Heavy snow  Heavy precipitations  Wind > 20 kt
SIGMETs :     Misc.  Thunderstorms  Icing  Turbulence  Mountain Waves  Volcanic Ashes







- Airport Elevation : 195 ft
- Download approach charts


LFMY - Salon de Provence

CURRENT METAR :
  • 151230Z AUTO 10021G34KT 070V130 CAVOK 22/11 Q1009 TEMPO RA

EXPIRED METARs :
  • 151200Z AUTO 10021G31KT CAVOK 22/10 Q1010 TEMPO RA
  • 151130Z AUTO 10021G39KT 070V130 9999 ///TCU 22/10 Q1010 TEMPO RA BKN030
  • 151100Z AUTO 10018G34KT CAVOK 21/10 Q1010 TEMPO RA
  • 151030Z AUTO 09017KT 9999 FEW035/// BKN088/// OVC100/// ///TCU 20/11 Q1010 TEMPO RA BKN030 BECMG 10020G30KT
  • 151000Z AUTO 11013KT 9999 -RA FEW040/// OVC088/// ///TCU 20/12 Q1011 TEMPO RA BKN030 BECMG 10020G30KT

TAF AMD TAF LFMY
Valid from the 15 at 09:00 until the 16 at 09:00 UTC


150836Z 1509/1609 10020G30KT CAVOK
TEMPO 1509/1609 5000 RA BKN030
BECMG 1522/1601 10010KT
No reported NOTAMs for that airfield.
3 SIGMETs reported for the Marseille FIR (LFMM) :
 
SIGMET 11 cancelation
LFMM SIGMET 12 VALID 151250/151400 LFPW
LFMM MARSEILLE FIR/UIR CNL SIGMET 11 151200/151400=
SIGMET 11  CANCELED :
Embedded thunderstorms
LFMM SIGMET 11 VALID 151200/151400 LFPW
LFMM MARSEILLE FIR/UIR EMBD TS FCST WI N4000 E00800 - N3900 E00800 - N3900 E00645 - N4215 E00515 - N4315 E00330 - N4330 E00345 - N4300 E00615 - N4000 E00800 TOP FL360 MOV N 5KT NC=
Severe turbulence
LFMM SIGMET 10 VALID 151200/151400 LFPW
LFMM MARSEILLE FIR/UIR SEV TURB FCST WI N4430 E00245 - N4545 E00300 - N4600 E00315 - N4430 E00500 - N4330 E00700 - N4245 E00700 - N4315 E00330 - N4430 E00245 SFC/FL070 STNR NC=



MET'MAP, your aeronautical weather chart ! - Copyright ORBIFLY December 2007 - Disclaimer

ORBIFLY MET'MAP TEAM :

Programming & Development : Alexandra Zaïnal
Concept & Development : Baudouin d'Aumeries
Co-Development & Prog : Marc-Olivier Méhu
Technical & hardware support : Manuel Goepfert

Contact : metmap@orbifly.com




SOURCES & CREDITS :

   NOAA